createdAt,value
2018-08-04T08:59:44.418Z,101401.33
2018-08-04T09:02:13.642Z,101402.51
2018-08-04T09:04:42.819Z,101406.24
2018-08-04T09:07:11.950Z,101406.04
2018-08-04T09:09:41.271Z,101401.72
2018-08-04T09:12:10.536Z,101399.05
2018-08-04T09:14:39.717Z,101405.53
2018-08-04T09:17:08.912Z,101411.02
2018-08-04T09:19:38.023Z,101408.70
2018-08-04T09:22:07.311Z,101408.17
2018-08-04T09:24:36.455Z,101413.28
2018-08-04T09:27:05.689Z,101422.36
2018-08-04T09:29:34.704Z,101411.39
2018-08-04T09:32:03.839Z,101414.80
2018-08-04T09:34:33.001Z,101414.17
2018-08-04T09:42:56.097Z,101406.36
2018-08-04T09:45:25.396Z,101406.77
2018-08-04T09:47:54.565Z,101408.41
2018-08-04T09:50:23.753Z,101407.22
2018-08-04T09:52:53.070Z,101409.52
2018-08-04T09:55:22.096Z,101403.06
2018-08-04T10:06:52.312Z,101418.88
2018-08-04T10:09:21.463Z,101419.39
2018-08-04T10:11:50.680Z,101421.02
2018-08-04T10:14:19.885Z,101415.28
2018-08-04T10:16:49.015Z,101420.05
2018-08-04T10:19:18.279Z,101430.78
2018-08-04T10:21:47.436Z,101425.64
2018-08-04T10:24:16.413Z,101418.09
2018-08-04T10:26:45.672Z,101421.23
2018-08-04T10:29:15.003Z,101417.02
2018-08-04T10:31:44.236Z,101415.20
2018-08-04T10:34:13.165Z,101414.39
2018-08-04T10:36:42.256Z,101411.81
2018-08-04T10:39:12.607Z,101409.02
2018-08-04T10:41:41.809Z,101403.00
2018-08-04T10:44:11.095Z,101408.26
2018-08-04T10:46:40.249Z,101399.55
2018-08-04T10:49:09.180Z,101403.67
2018-08-04T10:51:38.282Z,101407.55
2018-08-04T10:54:07.518Z,101409.44
2018-08-04T10:56:36.695Z,101407.57
2018-08-04T10:59:05.994Z,101409.89
2018-08-04T11:01:35.083Z,101409.13
2018-08-04T11:04:04.242Z,101403.36
2018-08-04T11:06:33.403Z,101406.59
2018-08-04T11:09:02.601Z,101407.11
2018-08-04T11:11:31.772Z,101401.92
2018-08-04T11:14:00.874Z,101393.11
2018-08-04T11:16:30.104Z,101396.97
2018-08-04T11:18:59.198Z,101396.06
2018-08-04T11:21:28.333Z,101398.14
2018-08-04T11:23:57.528Z,101398.39
2018-08-04T11:26:26.556Z,101384.06
2018-08-04T11:28:55.754Z,101380.34
2018-08-04T11:31:24.920Z,101377.78
2018-08-04T11:33:53.822Z,101370.16
2018-08-04T11:36:22.736Z,101375.49
2018-08-04T11:38:51.846Z,101384.33
2018-08-04T11:41:21.043Z,101379.20
2018-08-04T11:43:50.151Z,101376.08
2018-08-04T11:46:19.367Z,101381.58
2018-08-04T11:48:48.470Z,101376.42
2018-08-04T11:57:46.262Z,101370.82
2018-08-04T12:00:16.215Z,101366.59
2018-08-04T12:02:45.411Z,101358.58
2018-08-04T12:05:14.602Z,101367.74
2018-08-04T12:07:43.799Z,101364.69
2018-08-04T12:10:12.964Z,101360.23
2018-08-04T12:12:42.096Z,101362.59
2018-08-04T12:15:11.805Z,101358.95
2018-08-04T12:17:40.701Z,101355.50
2018-08-04T12:20:09.853Z,101358.03
2018-08-04T12:22:39.104Z,101352.78
2018-08-04T12:25:08.287Z,101350.69
2018-08-04T12:27:37.894Z,101348.21
2018-08-04T12:30:08.374Z,101349.22
2018-08-04T12:32:37.838Z,101334.67
2018-08-04T12:35:07.548Z,101334.16
2018-08-04T12:37:36.889Z,101336.77
2018-08-04T12:40:06.315Z,101327.88
2018-08-04T12:42:35.399Z,101332.17
2018-08-04T12:45:04.632Z,101336.62
2018-08-04T12:47:33.775Z,101331.73
2018-08-04T12:50:02.650Z,101335.19
2018-08-04T12:52:31.890Z,101334.48
2018-08-04T12:55:00.895Z,101325.70
2018-08-04T12:57:30.018Z,101324.75
2018-08-04T12:59:59.103Z,101328.95
2018-08-04T13:02:28.416Z,101330.20
2018-08-04T13:04:57.503Z,101317.72
2018-08-04T13:07:26.629Z,101328.95
2018-08-04T13:09:56.298Z,101331.33
2018-08-04T13:12:25.407Z,101325.37
2018-08-04T13:14:54.511Z,101331.48
2018-08-04T13:17:23.663Z,101331.66
2018-08-04T13:19:53.046Z,101319.94
2018-08-04T13:22:22.145Z,101320.23
2018-08-04T13:24:51.324Z,101330.70
2018-08-04T13:27:20.421Z,101325.01
2018-08-04T13:29:49.523Z,101322.47
2018-08-04T13:32:18.662Z,101323.30
2018-08-04T13:34:47.784Z,101318.83
2018-08-04T13:37:17.043Z,101325.89
2018-08-04T13:39:46.382Z,101323.21
2018-08-04T13:42:15.462Z,101317.34
2018-08-04T13:44:44.583Z,101318.36
2018-08-04T13:47:13.773Z,101313.39
2018-08-04T13:49:42.870Z,101316.70
2018-08-04T13:52:11.963Z,101309.70
2018-08-04T13:54:41.166Z,101311.60
2018-08-04T13:57:10.281Z,101307.38
2018-08-04T13:59:39.446Z,101304.67
2018-08-04T14:02:08.570Z,101301.27
2018-08-04T14:04:37.787Z,101308.27
2018-08-04T14:07:06.901Z,101301.22
2018-08-04T14:09:36.110Z,101303.22
2018-08-04T14:12:05.383Z,101304.88
2018-08-04T14:14:34.497Z,101303.45
2018-08-04T14:17:03.659Z,101301.66
2018-08-04T14:19:32.853Z,101308.54
2018-08-04T14:22:01.932Z,101308.63
2018-08-04T14:24:31.148Z,101303.94
2018-08-04T14:27:00.366Z,101304.86
2018-08-04T14:29:29.468Z,101296.88
2018-08-04T14:31:58.598Z,101302.23
2018-08-04T14:34:27.769Z,101293.72
2018-08-04T14:36:56.894Z,101290.15
2018-08-04T14:39:25.836Z,101298.01
2018-08-04T14:41:54.918Z,101291.36
2018-08-04T14:44:24.079Z,101285.98
2018-08-04T14:46:53.255Z,101297.48
2018-08-04T14:49:22.355Z,101295.88
2018-08-04T14:51:51.515Z,101297.16
2018-08-04T14:54:20.663Z,101298.27
2018-08-04T14:56:49.784Z,101298.32
2018-08-04T14:59:18.706Z,101291.41
2018-08-04T15:01:47.837Z,101293.76
2018-08-04T15:04:16.969Z,101284.14
2018-08-04T15:06:46.119Z,101289.49
2018-08-04T15:09:15.235Z,101286.28
2018-08-04T15:11:44.409Z,101280.20
2018-08-04T15:14:13.484Z,101287.19
2018-08-04T15:16:42.693Z,101284.56
2018-08-04T15:19:11.819Z,101285.63
2018-08-04T15:21:40.933Z,101290.62
2018-08-04T15:24:10.058Z,101284.34
2018-08-04T15:26:38.939Z,101283.85
2018-08-04T15:29:07.847Z,101280.22
2018-08-04T15:31:36.953Z,101283.69
2018-08-04T15:34:06.063Z,101282.98
2018-08-04T15:36:35.262Z,101279.36
2018-08-04T15:39:06.652Z,101283.91
2018-08-04T15:41:35.814Z,101276.84
2018-08-04T15:44:05.071Z,101283.41
2018-08-04T15:46:34.518Z,101278.70
2018-08-04T15:49:03.843Z,101284.05
2018-08-04T15:51:32.935Z,101286.33
2018-08-04T15:54:02.071Z,101282.59
2018-08-04T15:56:31.288Z,101284.03
2018-08-04T15:59:00.227Z,101288.75
2018-08-04T16:01:29.346Z,101283.88
2018-08-04T16:03:58.453Z,101281.69
2018-08-04T16:06:27.676Z,101284.50
2018-08-04T16:08:56.774Z,101284.69
2018-08-04T16:11:25.880Z,101289.14
2018-08-04T16:13:55.032Z,101294.75
2018-08-04T16:16:24.214Z,101292.58
2018-08-04T16:18:53.389Z,101290.79
2018-08-04T16:21:22.590Z,101292.72
2018-08-04T16:23:51.695Z,101287.52
2018-08-04T16:26:20.822Z,101286.69
2018-08-04T16:28:49.945Z,101294.97
2018-08-04T16:31:19.055Z,101294.78
2018-08-04T16:33:48.170Z,101297.48
2018-08-04T16:36:17.254Z,101295.66
2018-08-04T16:38:46.534Z,101293.63
2018-08-04T16:41:15.782Z,101296.32
2018-08-04T16:43:45.065Z,101303.54
2018-08-04T16:46:14.203Z,101292.92
2018-08-04T16:48:43.299Z,101293.43
2018-08-04T16:51:12.566Z,101296.78
2018-08-04T16:53:41.734Z,101294.09
2018-08-04T16:56:10.668Z,101302.98
2018-08-04T16:58:39.871Z,101305.50
2018-08-04T17:01:09.060Z,101303.66
2018-08-04T17:03:38.283Z,101301.57
2018-08-04T17:06:07.560Z,101305.25
2018-08-04T17:08:36.865Z,101303.05
2018-08-04T17:11:05.962Z,101308.55
2018-08-04T17:13:35.153Z,101317.29
2018-08-04T17:16:04.367Z,101318.34
2018-08-04T17:18:33.564Z,101318.15
2018-08-04T17:21:02.599Z,101326.05
2018-08-04T17:23:31.803Z,101326.05
2018-08-04T17:26:00.952Z,101320.96
2018-08-04T17:28:30.039Z,101327.59
2018-08-04T17:30:59.228Z,101327.78
2018-08-04T17:33:28.374Z,101327.20
2018-08-04T17:35:57.542Z,101324.83
2018-08-04T17:38:26.679Z,101326.29
2018-08-04T17:40:55.940Z,101332.76
2018-08-04T17:43:25.030Z,101333.75
2018-08-04T17:45:54.186Z,101334.49
2018-08-04T17:48:23.272Z,101328.52
2018-08-04T17:50:52.375Z,101339.92
2018-08-04T17:53:21.480Z,101344.55
2018-08-04T17:55:50.497Z,101349.72
2018-08-04T17:58:19.652Z,101345.41
2018-08-04T18:00:48.968Z,101353.10
2018-08-04T18:03:18.089Z,101351.33
2018-08-04T18:05:46.944Z,101351.40
2018-08-04T18:08:16.031Z,101353.33
2018-08-04T18:10:45.120Z,101360.23
2018-08-04T18:13:14.331Z,101367.78
2018-08-04T18:15:43.533Z,101369.58
2018-08-04T18:18:12.611Z,101375.36
2018-08-04T18:20:41.842Z,101369.55
2018-08-04T18:23:11.083Z,101364.44
2018-08-04T18:25:40.210Z,101376.14
2018-08-04T18:28:09.443Z,101378.00
2018-08-04T18:30:38.627Z,101384.61
2018-08-04T18:33:08.156Z,101382.08
2018-08-04T18:35:37.196Z,101388.95
2018-08-04T18:38:09.552Z,101395.47
2018-08-04T18:40:38.414Z,101393.83
2018-08-04T18:43:07.763Z,101399.71
2018-08-04T18:45:36.964Z,101403.15
2018-08-04T18:48:06.092Z,101406.05
2018-08-04T18:50:35.258Z,101410.73
2018-08-04T18:53:04.471Z,101415.44
2018-08-04T18:55:33.506Z,101425.16
2018-08-04T18:58:02.668Z,101423.56
2018-08-04T19:00:31.858Z,101419.94
2018-08-04T19:03:01.007Z,101422.33
2018-08-04T19:05:30.084Z,101418.92
2018-08-04T19:07:59.166Z,101426.16
2018-08-04T19:10:28.253Z,101426.36
2018-08-04T19:12:57.384Z,101431.03
2018-08-04T19:15:26.533Z,101437.19
2018-08-04T19:17:55.621Z,101442.59
2018-08-04T19:20:24.734Z,101442.06
2018-08-04T19:22:53.835Z,101446.72
2018-08-04T19:25:22.932Z,101453.73
2018-08-04T19:27:52.066Z,101453.02
2018-08-04T19:30:21.958Z,101458.77
2018-08-04T19:32:51.026Z,101469.95
2018-08-04T19:35:20.234Z,101471.30
2018-08-04T19:37:49.330Z,101473.02
2018-08-04T19:40:18.437Z,101475.99
2018-08-04T19:42:47.693Z,101484.63
2018-08-04T19:45:17.412Z,101479.99
2018-08-04T19:47:46.526Z,101485.63
2018-08-04T19:50:15.654Z,101484.69
2018-08-04T19:52:44.816Z,101492.11
2018-08-04T19:55:13.929Z,101499.41
2018-08-04T19:57:43.031Z,101501.73
2018-08-04T20:00:12.428Z,101498.70
2018-08-04T20:02:41.535Z,101500.38
2018-08-04T20:05:10.643Z,101502.22
2018-08-04T20:07:39.834Z,101511.70
2018-08-04T20:10:08.942Z,101509.88
2018-08-04T20:12:38.055Z,101511.22
2018-08-04T20:15:07.933Z,101512.06
2018-08-04T20:17:37.391Z,101520.06
2018-08-04T20:20:06.514Z,101519.71
2018-08-04T20:22:35.424Z,101525.78
2018-08-04T20:25:05.503Z,101529.06
2018-08-04T20:27:34.843Z,101523.14
2018-08-04T20:30:04.050Z,101523.27
2018-08-04T20:32:33.179Z,101525.06
2018-08-04T20:35:02.492Z,101533.04
2018-08-04T20:37:31.619Z,101529.88
2018-08-04T20:40:00.510Z,101530.36
2018-08-04T20:42:29.399Z,101530.60
2018-08-04T20:44:58.362Z,101537.27
2018-08-04T20:47:27.625Z,101531.45
2018-08-04T20:49:56.758Z,101531.55
2018-08-04T20:52:25.984Z,101540.02
2018-08-04T20:54:55.141Z,101540.76
2018-08-04T20:57:24.343Z,101539.53
2018-08-04T20:59:53.510Z,101539.28
2018-08-04T21:02:22.653Z,101537.56
2018-08-04T21:04:51.714Z,101536.20
2018-08-04T21:07:20.912Z,101538.74
2018-08-04T21:09:49.984Z,101535.70
2018-08-04T21:12:19.141Z,101536.97
2018-08-04T21:14:48.223Z,101546.03
2018-08-04T21:17:17.422Z,101536.84
2018-08-04T21:19:46.630Z,101541.05
2018-08-04T21:22:15.714Z,101540.67
2018-08-04T21:24:44.911Z,101549.98
2018-08-04T21:27:14.091Z,101549.55
2018-08-04T21:29:43.284Z,101546.88
2018-08-04T21:32:12.405Z,101545.16
2018-08-04T21:34:41.546Z,101548.91
2018-08-04T21:37:10.735Z,101547.05
2018-08-04T21:39:39.886Z,101555.23
2018-08-04T21:42:09.029Z,101553.65
2018-08-04T21:44:38.160Z,101557.98
2018-08-04T21:47:07.295Z,101556.42
2018-08-04T21:49:36.583Z,101553.55
2018-08-04T21:52:05.929Z,101567.45
2018-08-04T21:54:35.067Z,101562.46
2018-08-04T21:57:04.235Z,101568.50
2018-08-04T21:59:33.385Z,101571.75
2018-08-04T22:02:02.602Z,101568.50
2018-08-04T22:04:31.724Z,101570.22
2018-08-04T22:08:15.816Z,101569.81
2018-08-04T22:10:45.031Z,101570.81
2018-08-04T22:13:14.115Z,101564.77
2018-08-04T22:15:43.219Z,101571.61
2018-08-04T22:18:12.548Z,101574.86
2018-08-04T22:20:41.804Z,101574.92
2018-08-04T22:23:10.753Z,101576.05
2018-08-04T22:25:39.907Z,101582.06
2018-08-04T22:28:08.809Z,101581.53
2018-08-04T22:30:37.879Z,101586.46
2018-08-04T22:33:07.199Z,101583.33
2018-08-04T22:35:36.409Z,101586.84
2018-08-04T22:38:05.540Z,101585.60
2018-08-04T22:40:34.669Z,101586.78
2018-08-04T22:43:03.570Z,101582.91
2018-08-04T22:46:15.167Z,101599.05
2018-08-04T22:48:45.659Z,101596.48
2018-08-04T22:51:18.943Z,101592.70
2018-08-04T22:53:48.361Z,101599.19
2018-08-04T22:56:17.466Z,101589.19
2018-08-04T22:58:46.718Z,101589.78
2018-08-04T23:01:15.916Z,101591.30
2018-08-04T23:06:14.048Z,101601.30
2018-08-04T23:08:43.235Z,101601.97
2018-08-04T23:11:12.508Z,101601.73
2018-08-04T23:13:41.620Z,101608.77
2018-08-04T23:16:10.728Z,101609.92
2018-08-04T23:18:39.979Z,101616.59
2018-08-04T23:21:09.151Z,101610.31
2018-08-04T23:23:38.256Z,101620.03
2018-08-04T23:26:07.601Z,101616.52
2018-08-04T23:28:36.743Z,101622.05
2018-08-04T23:34:03.125Z,101618.28
2018-08-04T23:36:32.066Z,101627.58
2018-08-04T23:39:01.224Z,101627.95
2018-08-04T23:41:30.210Z,101637.60
2018-08-04T23:43:59.123Z,101638.77
2018-08-04T23:46:28.264Z,101638.19
2018-08-04T23:48:57.491Z,101635.47
2018-08-04T23:51:27.003Z,101640.39
2018-08-04T23:53:56.033Z,101639.25
2018-08-04T23:56:25.188Z,101639.66
2018-08-04T23:58:54.648Z,101639.78
